createdAt,value
2018-05-26T00:01:47.936Z,8.67
2018-05-26T00:04:22.576Z,14.37
2018-05-26T00:06:57.198Z,9.77
2018-05-26T00:09:30.865Z,11.00
2018-05-26T00:12:04.502Z,9.90
2018-05-26T00:14:38.171Z,11.43
2018-05-26T00:17:12.759Z,13.53
2018-05-26T00:19:46.428Z,16.83
2018-05-26T00:22:20.065Z,18.10
2018-05-26T00:24:53.772Z,12.87
2018-05-26T00:27:27.404Z,15.80
2018-05-26T00:30:02.053Z,10.13
2018-05-26T00:32:35.684Z,12.83
2018-05-26T00:35:09.358Z,18.73
2018-05-26T00:37:42.994Z,33.67
2018-05-26T00:40:16.668Z,40.83
2018-05-26T00:42:51.085Z,40.17
2018-05-26T00:45:25.528Z,46.33
2018-05-26T00:47:59.170Z,34.50
2018-05-26T00:53:12.061Z,30.57
2018-05-26T00:55:46.731Z,25.20
2018-05-26T00:58:20.376Z,25.73
2018-05-26T01:00:54.826Z,32.20
2018-05-26T01:03:29.440Z,26.20
2018-05-26T01:06:04.099Z,19.90
2018-05-26T01:08:38.696Z,26.13
2018-05-26T01:11:12.378Z,53.27
2018-05-26T01:13:46.033Z,33.77
2018-05-26T01:16:19.708Z,33.03
2018-05-26T01:18:53.351Z,41.83
2018-05-26T01:21:28.031Z,58.37
2018-05-26T01:24:02.648Z,34.00
2018-05-26T01:26:36.325Z,61.13
2018-05-26T01:29:10.973Z,41.60
2018-05-26T01:31:44.654Z,34.27
2018-05-26T01:34:19.253Z,39.83
2018-05-26T01:36:53.709Z,33.60
2018-05-26T01:39:27.357Z,27.70
2018-05-26T01:42:01.037Z,32.33
2018-05-26T01:44:34.688Z,29.80
2018-05-26T01:47:09.117Z,30.60
2018-05-26T01:49:42.756Z,30.83
2018-05-26T01:52:17.915Z,30.50
2018-05-26T01:54:51.557Z,37.70
2018-05-26T01:57:25.234Z,36.90
2018-05-26T01:59:59.632Z,40.40
2018-05-26T02:02:33.314Z,35.27
2018-05-26T02:05:06.963Z,33.33
2018-05-26T02:07:41.407Z,36.93
2018-05-26T02:10:15.057Z,37.60
2018-05-26T02:12:48.738Z,30.87
2018-05-26T02:15:22.384Z,28.43
2018-05-26T02:17:57.800Z,34.60
2018-05-26T02:20:31.440Z,34.23
2018-05-26T02:23:06.097Z,27.80
2018-05-26T02:25:39.746Z,30.90
2018-05-26T02:28:14.201Z,35.73
2018-05-26T02:30:47.843Z,30.33
2018-05-26T02:33:22.487Z,43.93
2018-05-26T02:35:57.110Z,107.83
2018-05-26T02:38:31.576Z,56.17
2018-05-26T02:41:05.222Z,58.73
2018-05-26T02:43:38.903Z,43.73
2018-05-26T02:46:13.492Z,65.43
2018-05-26T02:48:47.174Z,39.87
2018-05-26T02:51:20.816Z,43.50
2018-05-26T02:53:54.501Z,35.70
2018-05-26T02:56:28.183Z,31.40
2018-05-26T02:59:01.917Z,29.50
2018-05-26T03:01:35.649Z,27.57
2018-05-26T03:04:12.029Z,26.60
2018-05-26T03:06:55.231Z,27.50
2018-05-26T03:09:35.538Z,27.37
2018-05-26T03:12:14.688Z,30.53
2018-05-26T03:14:47.623Z,29.80
2018-05-26T03:17:25.654Z,28.90
2018-05-26T03:19:59.320Z,28.83
2018-05-26T03:22:33.734Z,28.83
2018-05-26T03:25:07.412Z,30.63
2018-05-26T03:27:41.047Z,25.63
2018-05-26T03:30:15.217Z,21.53
2018-05-26T03:32:48.545Z,22.47
2018-05-26T03:35:23.173Z,24.97
2018-05-26T03:37:57.572Z,22.17
2018-05-26T03:40:31.249Z,18.00
2018-05-26T03:43:04.880Z,18.27
2018-05-26T03:45:39.915Z,14.17
2018-05-26T03:48:13.572Z,12.80
2018-05-26T03:50:47.240Z,14.90
2018-05-26T03:53:21.675Z,12.20
2018-05-26T03:56:06.510Z,10.10
2018-05-26T03:58:52.278Z,8.97
2018-05-26T04:01:25.917Z,8.37
2018-05-26T04:04:00.134Z,9.18
2018-05-26T04:06:35.318Z,8.40
2018-05-26T04:09:10.274Z,8.27
2018-05-26T04:11:45.491Z,9.45
2018-05-26T04:14:19.684Z,8.40
2018-05-26T04:16:53.920Z,8.30
2018-05-26T04:19:28.865Z,7.22
2018-05-26T04:22:04.062Z,7.95
2018-05-26T04:24:38.252Z,8.38
2018-05-26T04:27:13.491Z,8.80
2018-05-26T04:29:48.661Z,11.07
2018-05-26T04:32:24.034Z,11.18
2018-05-26T04:34:58.243Z,8.52
2018-05-26T04:37:33.283Z,10.75
2018-05-26T04:40:07.475Z,9.07
2018-05-26T04:42:41.711Z,8.48
2018-05-26T04:45:16.669Z,8.73
2018-05-26T04:47:51.866Z,8.80
2018-05-26T04:50:27.018Z,8.20
2018-05-26T04:53:06.791Z,10.35
2018-05-26T04:55:43.491Z,8.63
2018-05-26T04:58:17.796Z,9.20
2018-05-26T05:00:51.999Z,9.43
2018-05-26T05:03:26.245Z,7.47
2018-05-26T05:06:00.148Z,7.77
2018-05-26T05:08:35.143Z,8.07
2018-05-26T05:11:09.078Z,7.87
2018-05-26T05:13:43.785Z,7.33
2018-05-26T05:16:18.009Z,9.85
2018-05-26T05:18:52.201Z,7.32
2018-05-26T05:21:26.426Z,9.35
2018-05-26T05:24:00.624Z,7.50
2018-05-26T05:26:34.564Z,7.37
2018-05-26T05:29:09.229Z,9.37
2018-05-26T05:31:44.441Z,6.40
2018-05-26T05:34:19.611Z,5.32
2018-05-26T05:36:54.801Z,7.85
2018-05-26T05:39:29.769Z,7.28
2018-05-26T05:42:04.045Z,7.53
2018-05-26T05:44:38.710Z,9.77
2018-05-26T05:50:07.435Z,5.87
2018-05-26T05:52:41.742Z,10.82
2018-05-26T05:55:15.656Z,9.60
2018-05-26T05:57:49.893Z,6.53
2018-05-26T06:00:25.109Z,7.68
2018-05-26T06:03:00.363Z,5.97
2018-05-26T06:05:41.760Z,17.30
2018-05-26T06:08:18.821Z,7.35
2018-05-26T06:11:11.677Z,7.82
2018-05-26T06:13:51.696Z,11.50
2018-05-26T06:16:26.753Z,9.88
2018-05-26T06:19:01.535Z,8.07
2018-05-26T06:21:36.809Z,8.38
2018-05-26T06:24:11.681Z,5.90
2018-05-26T06:26:46.680Z,7.93
2018-05-26T06:29:20.887Z,6.93
2018-05-26T06:31:56.292Z,7.75
2018-05-26T06:34:31.431Z,8.05
2018-05-26T06:37:05.395Z,7.83
2018-05-26T06:39:41.024Z,4.73
2018-05-26T06:42:15.278Z,7.22
2018-05-26T06:44:50.426Z,6.85
2018-05-26T06:47:25.624Z,6.82
2018-05-26T06:49:59.826Z,6.57
2018-05-26T06:52:34.062Z,7.22
2018-05-26T06:55:08.269Z,6.93
2018-05-26T06:57:43.476Z,7.18
2018-05-26T07:00:17.686Z,7.82
2018-05-26T07:02:52.796Z,5.93
2018-05-26T07:05:26.704Z,9.63
2018-05-26T07:08:00.448Z,13.27
2018-05-26T07:10:34.364Z,7.13
2018-05-26T07:13:09.105Z,7.70
2018-05-26T07:15:44.760Z,10.10
2018-05-26T07:18:19.681Z,5.77
2018-05-26T07:20:54.383Z,9.17
2018-05-26T07:23:28.344Z,9.10
2018-05-26T07:26:02.540Z,7.68
2018-05-26T07:28:36.493Z,12.33
2018-05-26T07:31:10.396Z,8.87
2018-05-26T07:33:45.371Z,10.07
2018-05-26T07:36:19.423Z,9.20
2018-05-26T07:38:54.369Z,8.83
2018-05-26T07:41:28.277Z,6.57
2018-05-26T07:44:02.212Z,8.40
2018-05-26T07:46:36.130Z,8.33
2018-05-26T07:49:11.811Z,8.40
2018-05-26T07:51:45.713Z,8.97
2018-05-26T07:54:20.636Z,11.00
2018-05-26T07:56:54.921Z,12.20
2018-05-26T07:59:29.917Z,9.23
2018-05-26T08:02:03.874Z,7.90
2018-05-26T08:04:38.550Z,6.37
2018-05-26T08:07:12.504Z,11.83
2018-05-26T08:09:47.185Z,11.70
2018-05-26T08:12:21.139Z,8.20
2018-05-26T08:14:55.927Z,7.63
2018-05-26T08:17:29.947Z,7.70
2018-05-26T08:20:05.715Z,7.53
2018-05-26T08:22:39.655Z,8.77
2018-05-26T08:25:13.568Z,8.27
2018-05-26T08:27:49.235Z,8.07
2018-05-26T08:30:23.131Z,8.87
2018-05-26T08:32:57.081Z,5.60
2018-05-26T08:35:31.989Z,5.50
2018-05-26T08:38:06.904Z,10.27
2018-05-26T08:40:40.809Z,6.67
2018-05-26T08:43:14.754Z,10.77
2018-05-26T08:51:30.639Z,10.68
2018-05-26T08:57:14.016Z,7.70
2018-05-26T08:59:50.478Z,8.40
2018-05-26T09:02:30.444Z,7.87
2018-05-26T09:05:26.449Z,6.90
2018-05-26T09:08:00.842Z,9.13
2018-05-26T09:10:35.153Z,6.35
2018-05-26T09:13:09.364Z,8.98
2018-05-26T09:15:43.611Z,6.28
2018-05-26T09:18:17.869Z,7.12
2018-05-26T09:20:53.255Z,5.60
2018-05-26T09:23:27.156Z,8.70
2018-05-26T09:26:02.408Z,7.50
2018-05-26T09:28:42.090Z,5.50
2018-05-26T09:31:17.821Z,10.43
2018-05-26T09:33:52.024Z,7.93
2018-05-26T09:36:26.286Z,6.68
2018-05-26T09:39:01.254Z,9.25
2018-05-26T09:41:35.495Z,10.32
2018-05-26T09:44:09.686Z,9.23
2018-05-26T09:46:44.915Z,5.93
2018-05-26T09:49:19.123Z,7.05
2018-05-26T09:51:54.331Z,8.70
2018-05-26T09:54:29.296Z,5.10
2018-05-26T09:57:04.545Z,8.88
2018-05-26T09:59:38.721Z,8.00
2018-05-26T10:02:13.921Z,10.43
2018-05-26T10:04:48.120Z,7.05
2018-05-26T10:07:23.134Z,7.40
2018-05-26T10:09:57.340Z,7.37
2018-05-26T10:12:31.581Z,7.90
2018-05-26T10:15:05.787Z,9.50
2018-05-26T10:17:40.016Z,4.90
2018-05-26T10:20:14.334Z,8.70
2018-05-26T10:22:48.525Z,10.50
2018-05-26T10:25:22.756Z,11.57
2018-05-26T10:27:56.956Z,6.45
2018-05-26T10:30:31.176Z,9.93
2018-05-26T10:33:06.343Z,9.63
2018-05-26T10:35:40.577Z,10.88
2018-05-26T10:38:15.745Z,7.25
2018-05-26T10:40:49.985Z,8.65
2018-05-26T10:43:24.209Z,7.82
2018-05-26T10:46:09.679Z,8.68
2018-05-26T10:48:43.935Z,8.00
2018-05-26T10:51:18.968Z,6.47
2018-05-26T10:53:53.967Z,7.35
2018-05-26T10:56:28.209Z,6.32
2018-05-26T10:59:02.968Z,8.80
2018-05-26T11:01:38.181Z,5.40
2018-05-26T11:04:13.367Z,5.80
2018-05-26T11:06:48.283Z,8.88
2018-05-26T11:09:22.485Z,8.75
2018-05-26T11:11:56.728Z,4.57
2018-05-26T11:14:31.128Z,7.53
2018-05-26T11:17:05.585Z,8.43
2018-05-26T11:19:39.973Z,6.70
2018-05-26T11:22:15.207Z,7.03
2018-05-26T11:24:49.455Z,7.03
2018-05-26T11:27:23.848Z,5.95
2018-05-26T11:29:58.046Z,4.30
2018-05-26T11:32:33.377Z,6.45
2018-05-26T11:35:07.585Z,3.58
2018-05-26T11:37:41.823Z,7.75
2018-05-26T11:40:16.069Z,7.87
2018-05-26T11:42:50.302Z,7.65
2018-05-26T11:45:25.276Z,6.45
2018-05-26T11:47:59.565Z,7.97
2018-05-26T11:50:33.820Z,6.75
2018-05-26T11:53:08.073Z,5.05
2018-05-26T11:55:42.274Z,5.87
2018-05-26T11:58:16.512Z,7.45
2018-05-26T12:00:51.476Z,3.87
2018-05-26T12:03:26.686Z,8.45
2018-05-26T12:06:01.648Z,6.93
2018-05-26T12:08:35.895Z,4.40
2018-05-26T12:11:10.140Z,5.00
2018-05-26T12:13:44.554Z,7.18
2018-05-26T12:16:19.522Z,5.57
2018-05-26T12:18:54.744Z,7.20
2018-05-26T12:21:28.947Z,4.00
2018-05-26T12:24:03.966Z,4.65
2018-05-26T12:29:19.671Z,4.87
2018-05-26T12:31:55.627Z,7.18
2018-05-26T12:34:30.628Z,7.12
2018-05-26T12:37:04.500Z,4.78
2018-05-26T12:39:38.728Z,5.10
2018-05-26T12:42:12.931Z,5.30
2018-05-26T12:44:48.126Z,4.90
2018-05-26T12:47:23.100Z,5.90
2018-05-26T12:49:58.330Z,7.72
2018-05-26T12:52:33.484Z,4.90
2018-05-26T12:55:07.737Z,8.00
2018-05-26T12:57:41.947Z,5.30
2018-05-26T13:00:16.196Z,5.80
2018-05-26T13:02:51.363Z,6.32
2018-05-26T13:05:25.610Z,6.53
2018-05-26T13:07:59.816Z,3.90
2018-05-26T13:10:34.070Z,4.90
2018-05-26T13:13:08.296Z,6.03
2018-05-26T13:15:42.737Z,6.60
2018-05-26T13:18:16.935Z,4.95
2018-05-26T13:20:51.171Z,4.12
2018-05-26T13:23:25.376Z,2.97
2018-05-26T13:25:59.611Z,4.75
2018-05-26T13:28:33.826Z,5.68
2018-05-26T13:31:08.073Z,5.18
2018-05-26T13:33:43.999Z,6.70
2018-05-26T13:36:19.177Z,3.70
2018-05-26T13:38:54.144Z,4.43
2018-05-26T13:41:29.339Z,3.83
2018-05-26T13:44:04.000Z,4.07
2018-05-26T13:46:38.234Z,6.78
2018-05-26T13:49:13.405Z,3.37
2018-05-26T13:51:48.434Z,3.78
2018-05-26T13:54:22.642Z,3.30
2018-05-26T13:56:57.849Z,3.80
2018-05-26T13:59:32.044Z,3.92
2018-05-26T14:02:05.970Z,2.97
2018-05-26T14:04:40.160Z,3.25
2018-05-26T14:07:14.447Z,3.85
2018-05-26T14:09:48.792Z,3.60
2018-05-26T14:12:23.036Z,2.62
2018-05-26T14:14:57.232Z,3.47
2018-05-26T14:17:31.476Z,2.53
2018-05-26T14:20:05.338Z,2.83
2018-05-26T14:22:40.726Z,3.70
2018-05-26T14:25:14.932Z,3.00
2018-05-26T14:27:49.192Z,5.07
2018-05-26T14:30:23.423Z,1.87
2018-05-26T14:32:57.631Z,4.28
2018-05-26T14:35:31.869Z,6.60
2018-05-26T14:38:06.093Z,3.33
2018-05-26T14:40:40.332Z,6.18
2018-05-26T14:43:14.524Z,4.00
2018-05-26T14:45:49.783Z,6.35
2018-05-26T14:48:23.990Z,4.07
2018-05-26T14:50:59.215Z,4.75
2018-05-26T14:53:33.604Z,4.70
2018-05-26T14:56:07.805Z,5.55
2018-05-26T14:58:43.090Z,5.28
2018-05-26T15:01:18.334Z,4.90
2018-05-26T15:03:52.575Z,5.85
2018-05-26T15:06:27.576Z,3.45
2018-05-26T15:09:01.787Z,5.30
2018-05-26T15:11:37.075Z,5.70
2018-05-26T15:14:11.314Z,5.60
2018-05-26T15:16:45.597Z,5.15
2018-05-26T15:19:20.594Z,5.53
2018-05-26T15:21:54.862Z,4.43
2018-05-26T15:24:29.065Z,5.32
2018-05-26T15:27:03.309Z,5.50
2018-05-26T15:29:37.612Z,4.85
2018-05-26T15:32:12.840Z,4.90
2018-05-26T15:34:47.088Z,3.75
2018-05-26T15:37:21.313Z,2.65
2018-05-26T15:39:55.508Z,4.53
2018-05-26T15:42:29.736Z,3.70
2018-05-26T15:45:04.994Z,3.53
2018-05-26T15:47:40.155Z,4.47
2018-05-26T15:50:18.885Z,3.75
2018-05-26T15:52:59.854Z,6.50
2018-05-26T15:55:34.166Z,4.78
2018-05-26T15:58:09.186Z,5.57
2018-05-26T16:00:44.178Z,6.32
2018-05-26T16:03:18.419Z,5.60
2018-05-26T16:05:52.616Z,4.93
2018-05-26T16:08:26.852Z,5.35
2018-05-26T16:11:01.053Z,5.78
2018-05-26T16:13:35.301Z,8.73
2018-05-26T16:16:10.267Z,3.85
2018-05-26T16:18:44.178Z,6.07
2018-05-26T16:21:18.373Z,5.35
2018-05-26T16:23:52.625Z,8.35
2018-05-26T16:26:26.832Z,5.45
2018-05-26T16:29:01.105Z,7.03
2018-05-26T16:31:35.311Z,8.85
2018-05-26T16:34:12.597Z,6.47
2018-05-26T16:36:46.840Z,4.45
2018-05-26T16:39:21.072Z,7.03
2018-05-26T16:41:55.267Z,5.95
2018-05-26T16:44:29.504Z,7.60
2018-05-26T16:47:03.731Z,6.22
2018-05-26T16:49:37.973Z,8.40
2018-05-26T16:52:13.026Z,8.95
2018-05-26T16:54:47.254Z,5.75
2018-05-26T16:57:22.432Z,6.05
2018-05-26T16:59:56.660Z,8.32
2018-05-26T17:02:31.826Z,12.45
2018-05-26T17:05:06.105Z,7.00
2018-05-26T17:07:40.308Z,8.25
2018-05-26T17:10:15.674Z,6.45
2018-05-26T17:12:50.645Z,5.90
2018-05-26T17:15:24.900Z,5.20
2018-05-26T17:17:59.099Z,9.20
2018-05-26T17:20:33.335Z,7.28
2018-05-26T17:23:07.688Z,7.75
2018-05-26T17:25:41.924Z,3.87
2018-05-26T17:28:16.134Z,7.40
2018-05-26T17:30:50.401Z,5.87
2018-05-26T17:33:25.732Z,3.75
2018-05-26T17:35:59.970Z,4.35
2018-05-26T17:38:34.932Z,6.85
2018-05-26T17:41:09.974Z,3.80
2018-05-26T17:43:45.156Z,5.07
2018-05-26T17:46:19.389Z,6.43
2018-05-26T17:48:55.316Z,5.00
2018-05-26T17:51:29.796Z,7.68
2018-05-26T17:54:03.990Z,4.90
2018-05-26T17:56:38.245Z,6.18
2018-05-26T17:59:12.441Z,3.75
2018-05-26T18:01:47.660Z,5.43
2018-05-26T18:04:21.869Z,5.47
2018-05-26T18:06:57.092Z,5.00
2018-05-26T18:09:33.031Z,7.55
2018-05-26T18:12:08.040Z,8.02
2018-05-26T18:14:42.244Z,6.95
2018-05-26T18:17:16.467Z,8.95
2018-05-26T18:19:50.675Z,8.13
2018-05-26T18:22:24.912Z,8.23
2018-05-26T18:24:59.144Z,10.02
2018-05-26T18:27:34.155Z,7.20
2018-05-26T18:30:08.551Z,10.27
2018-05-26T18:32:42.787Z,9.23
2018-05-26T18:35:17.005Z,7.22
2018-05-26T18:37:51.243Z,12.32
2018-05-26T18:40:25.476Z,9.77
2018-05-26T18:43:00.671Z,9.70
2018-05-26T18:45:34.901Z,13.40
2018-05-26T18:48:09.891Z,11.32
2018-05-26T18:50:45.164Z,12.07
2018-05-26T18:53:20.165Z,11.40
2018-05-26T18:55:54.423Z,12.05
2018-05-26T18:58:29.413Z,13.77
2018-05-26T19:01:03.702Z,12.75
2018-05-26T19:03:37.920Z,13.43
2018-05-26T19:06:12.181Z,12.85
2018-05-26T19:08:46.391Z,13.05
2018-05-26T19:11:21.425Z,15.23
2018-05-26T19:13:55.679Z,15.57
2018-05-26T19:16:30.919Z,16.85
2018-05-26T19:19:05.164Z,15.90
2018-05-26T19:21:39.621Z,21.65
2018-05-26T19:24:14.685Z,17.73
2018-05-26T19:26:49.924Z,20.77
2018-05-26T19:29:26.404Z,20.05
2018-05-26T19:32:00.839Z,20.80
2018-05-26T19:34:35.316Z,18.70
2018-05-26T19:37:08.978Z,20.37
2018-05-26T19:39:43.695Z,19.50
2018-05-26T19:42:17.356Z,20.60
2018-05-26T19:44:54.478Z,19.73
2018-05-26T19:47:28.794Z,17.93
2018-05-26T19:50:03.501Z,21.27
2018-05-26T19:52:38.014Z,20.97
2018-05-26T19:55:11.754Z,25.87
2018-05-26T19:57:45.413Z,21.67
2018-05-26T20:00:19.113Z,20.90
2018-05-26T20:02:53.792Z,23.93
2018-05-26T20:05:27.490Z,21.50
2018-05-26T20:08:01.153Z,20.87
2018-05-26T20:10:35.632Z,24.33
2018-05-26T20:13:09.329Z,22.17
2018-05-26T20:15:43.074Z,21.53
2018-05-26T20:18:16.779Z,21.70
2018-05-26T20:20:51.450Z,20.67
2018-05-26T20:23:25.131Z,24.53
2018-05-26T20:25:58.838Z,28.07
2018-05-26T20:28:32.967Z,25.80
2018-05-26T20:31:15.706Z,24.20
2018-05-26T20:33:51.466Z,24.67
2018-05-26T20:36:25.167Z,31.20
2018-05-26T20:38:59.848Z,33.60
2018-05-26T20:41:33.525Z,26.07
2018-05-26T20:44:08.965Z,30.13
2018-05-26T20:46:42.644Z,30.77
2018-05-26T20:49:26.651Z,34.87
2018-05-26T20:51:59.990Z,35.87
2018-05-26T20:54:38.246Z,33.23
2018-05-26T21:00:16.093Z,34.40
2018-05-26T21:02:50.932Z,32.33
2018-05-26T21:05:26.477Z,34.70
2018-05-26T21:08:03.225Z,35.40
2018-05-26T21:10:36.873Z,32.83
2018-05-26T21:13:12.295Z,30.90
2018-05-26T21:15:45.937Z,30.90
2018-05-26T21:18:26.525Z,30.13
2018-05-26T21:21:01.192Z,30.73
2018-05-26T21:23:45.580Z,32.33
2018-05-26T21:26:20.192Z,31.97
2018-05-26T21:28:53.875Z,32.63
2018-05-26T21:31:28.617Z,29.47
2018-05-26T21:34:03.464Z,32.33
2018-05-26T21:36:37.111Z,28.53
2018-05-26T21:39:10.814Z,31.23
2018-05-26T21:41:44.462Z,35.87
2018-05-26T21:44:18.145Z,34.97
2018-05-26T21:46:53.579Z,32.60
2018-05-26T21:49:27.989Z,33.57
2018-05-26T21:52:01.673Z,38.20
2018-05-26T21:54:35.318Z,41.10
2018-05-26T21:57:09.073Z,38.83
2018-05-26T21:59:42.716Z,42.83
2018-05-26T22:02:17.376Z,41.90
2018-05-26T22:04:51.017Z,45.50
2018-05-26T22:07:25.641Z,34.73
2018-05-26T22:09:59.291Z,41.50
2018-05-26T22:12:33.946Z,44.63
2018-05-26T22:15:08.565Z,36.57
2018-05-26T22:17:42.273Z,40.13
2018-05-26T22:20:15.926Z,60.80
2018-05-26T22:22:50.660Z,63.70
2018-05-26T22:25:24.308Z,64.30
2018-05-26T22:27:57.990Z,35.43
2018-05-26T22:30:31.636Z,48.33
2018-05-26T22:33:06.276Z,50.67
2018-05-26T22:35:39.974Z,49.60
2018-05-26T22:38:14.572Z,44.10
2018-05-26T22:40:49.017Z,41.77
2018-05-26T22:43:23.615Z,47.90
2018-05-26T22:45:59.051Z,65.50
2018-05-26T22:48:33.456Z,80.83
2018-05-26T22:51:07.136Z,52.70
2018-05-26T22:53:40.812Z,45.13
2018-05-26T22:56:15.449Z,44.10
2018-05-26T22:58:50.072Z,39.03
2018-05-26T23:01:23.707Z,36.93
2018-05-26T23:03:57.400Z,31.93
2018-05-26T23:06:31.047Z,26.80
2018-05-26T23:09:03.852Z,23.93
2018-05-26T23:11:37.496Z,23.33
2018-05-26T23:14:12.134Z,27.43
2018-05-26T23:16:47.512Z,27.87
2018-05-26T23:19:21.192Z,39.17
2018-05-26T23:21:54.844Z,36.90
2018-05-26T23:24:29.498Z,46.77
2018-05-26T23:27:03.913Z,47.47
2018-05-26T23:29:37.596Z,58.43
2018-05-26T23:32:11.304Z,59.87
2018-05-26T23:34:44.948Z,73.10
2018-05-26T23:37:19.616Z,64.00
2018-05-26T23:39:53.272Z,62.80
2018-05-26T23:42:26.971Z,82.03
2018-05-26T23:45:00.623Z,87.40
2018-05-26T23:47:34.312Z,110.67
2018-05-26T23:50:07.948Z,77.80
2018-05-26T23:52:41.637Z,90.17
2018-05-26T23:55:16.232Z,78.63
2018-05-26T23:57:49.953Z,67.77
